Flight Track Log - Related Links

Times and Time Zones

All times are in EDT time to prevent confusion due to time zone crossing. See the N509QS flight status page for this flight to view local times or setup timezone preferences in your user account.

Time Position Orientation Groundspeed Altitude Reporting Facility
EDT Latitude Longitude Course Direction KTS MPH feet Rate Location/Type
Thu 08:38:47 PM 39.5833 -104.9167 333° Northwest 261 300 10,500  Level Denver TRACON
Thu 08:39:41 PM 39.6333 -104.8333 52° Northeast 307 353 11,800 1,650 Climbing Denver TRACON
Thu 08:40:47 PM 39.6833 -104.7167 61° Northeast 371 427 13,800 2,048 Climbing Denver TRACON
Thu 08:41:47 PM 39.7500 -104.6167 49° Northeast 395 455 16,100 2,350 Climbing Denver TRACON
Thu 08:42:47 PM 39.8667 -104.5667 18° North 408 470 18,500 2,524 Climbing Denver TRACON
Thu 08:43:00 PM 40.1140 -104.1372 48° Northeast  Level FlightAware Approximate
Thu 08:43:53 PM 39.9833 -104.5000 24° Northeast 421 484 21,400  Level Denver TRACON
Thu 08:45:13 PM 40.1381 -104.4369 17° North 454 522 23,400 1,563 Climbing Denver Center
Thu 08:46:15 PM 40.2681 -104.3761 20° North 471 542 25,100 1,887 Climbing Denver Center
Thu 08:47:17 PM 40.3969 -104.3164 19° North 485 558 27,300 1,984 Climbing Denver Center
Thu 08:48:19 PM 40.5244 -104.2608 18° North 483 556 29,200 1,941 Climbing Denver Center
Thu 08:49:33 PM 40.6586 -104.1292 37° Northeast 492 566 31,700 2,162 Climbing Denver Center
Thu 08:50:35 PM 40.7783 -103.9825 43° Northeast 481 554 34,100 2,129 Climbing Denver Center
Thu 08:51:37 PM 40.8758 -103.8539 45° Northeast 491 565 36,100 1,935 Climbing Denver Center
Thu 08:52:39 PM 40.9719 -103.7300 44° Northeast 485 558 38,100 2,032 Climbing Denver Center
Thu 08:53:41 PM 41.0731 -103.5992 44° Northeast 477 549 40,300 1,403 Climbing Denver Center
Thu 08:54:43 PM 41.1614 -103.4828 45° Northeast 471 542 41,000 387 Climbing Denver Center
Thu 08:55:45 PM 41.2703 -103.3394 45° Northeast 490 564 41,100 145 Climbing Denver Center
Thu 08:56:47 PM 41.3661 -103.2119 45° Northeast 506 582 41,300 677 Climbing Denver Center
Thu 08:57:49 PM 41.4267 -103.0222 67° East 509 586 42,500 1,016 Climbing Denver Center
Thu 08:58:51 PM 41.4594 -102.8481 76° East 509 586 43,400 927 Climbing Denver Center
Thu 08:59:52 PM 41.4903 -102.6756 77° East 502 578 44,400 780 Climbing Denver Center
Thu 09:00:54 PM 41.5289 -102.4806 75° East 491 565 45,000 290 Climbing Denver Center
Thu 09:01:56 PM 41.5583 -102.3114 77° East 489 563 45,000  Level Denver Center
Thu 09:02:58 PM 41.6069 -102.1178 71° East 490 564 45,000  Level Denver Center
Thu 09:04:00 PM 41.6514 -101.9528 70° East 492 566 45,000  Level Denver Center
Thu 09:05:02 PM 41.7036 -101.7600 70° East 493 567 45,000  Level Denver Center
Thu 09:06:04 PM 41.7639 -101.6067 62° Northeast 484 557 45,000  Level Denver Center
Thu 09:07:06 PM 41.8450 -101.4353 58° Northeast 487 560 45,000  Level Denver Center
Thu 09:08:08 PM 41.9142 -101.2889 58° Northeast 484 557 45,000  Level Denver Center
Thu 09:09:10 PM 41.9825 -101.1400 58° Northeast 487 560 45,000  Level Denver Center
Thu 09:10:12 PM 42.0514 -100.9606 63° Northeast 489 563 45,000  Level Denver Center
Thu 09:11:14 PM 42.0781 -100.7875 78° East 491 565 45,000  Level Denver Center
Thu 09:12:16 PM 42.1072 -100.5858 79° East 491 565 45,000  Level Denver Center
Thu 09:13:17 PM 42.1325 -100.4111 79° East 495 570 45,000  Level Denver Center
Thu 09:14:19 PM 42.1614 -100.2092 79° East 493 567 45,000  Level Denver Center
Thu 09:15:21 PM 42.1861 -100.0347 79° East 493 567 45,000  Level Denver Center
Thu 09:16:23 PM 42.2144 -99.8303 79° East 496 571 45,000  Level Denver Center
Thu 09:17:25 PM 42.2364 -99.6747 79° East 496 571 45,000  Level Denver Center
Thu 09:18:39 PM 42.2667 -99.4558 79° East 493 567 45,000  Level Denver Center
Thu 09:19:48 PM 42.2961 -99.2383 80° East 492 566 45,000  Level Minneapolis Center
Thu 09:20:50 PM 42.3200 -99.0564 80° East 492 566 45,000  Level Minneapolis Center
Thu 09:21:45 PM 42.3444 -98.8736 80° East 487 560 45,000  Level Denver Center
Thu 09:22:47 PM 42.3689 -98.6914 80° East 489 563 45,000  Level Denver Center
Thu 09:23:57 PM 42.3964 -98.4739 80° East 491 565 45,000  Level Minneapolis Center
Thu 09:24:59 PM 42.4200 -98.2903 80° East 493 567 45,000  Level Minneapolis Center
Thu 09:26:01 PM 42.4428 -98.1050 80° East 496 571 45,000  Level Minneapolis Center
Thu 09:27:03 PM 42.4661 -97.9186 80° East 500 575 45,000  Level Minneapolis Center
Thu 09:28:05 PM 42.4889 -97.7275 81° East 497 572 45,000  Level Minneapolis Center
Thu 09:29:07 PM 42.5100 -97.5444 81° East 492 566 45,000  Level Minneapolis Center
Thu 09:30:09 PM 42.5364 -97.3217 81° East 497 572 45,000  Level Minneapolis Center
Thu 09:31:11 PM 42.5581 -97.1353 81° East 499 574 45,000  Level Minneapolis Center
Thu 09:32:13 PM 42.5797 -96.9497 81° East 499 574 45,000  Level Minneapolis Center
Thu 09:33:15 PM 42.6006 -96.7633 81° East 500 575 45,000  Level Minneapolis Center
Thu 09:34:17 PM 42.6206 -96.5764 82° East 499 574 45,000  Level Minneapolis Center
Thu 09:35:19 PM 42.6414 -96.3892 81° East 499 574 45,000  Level Minneapolis Center
Thu 09:36:21 PM 42.6617 -96.2031 82° East 497 572 45,000  Level Minneapolis Center
Thu 09:37:23 PM 42.6850 -95.9806 82° East 496 571 45,000  Level Minneapolis Center
Thu 09:38:25 PM 42.7042 -95.7953 82° East 495 570 45,000  Level Minneapolis Center
Thu 09:39:27 PM 42.7231 -95.6125 82° East 491 565 45,000  Level Minneapolis Center
Thu 09:40:29 PM 42.7417 -95.4181 83° East 485 558 45,000  Level Minneapolis Center
Thu 09:41:31 PM 42.7597 -95.2350 82° East 489 563 45,000  Level Minneapolis Center
Thu 09:42:33 PM 42.7786 -95.0531 82° East 490 564 45,000  Level Minneapolis Center
Thu 09:43:35 PM 42.7950 -94.8697 83° East 491 565 45,000  Level Minneapolis Center
Thu 09:44:36 PM 42.8125 -94.6886 82° East 487 560 45,000  Level Minneapolis Center
Thu 09:45:38 PM 42.8319 -94.4806 83° East 493 567 45,000  Level Minneapolis Center
Thu 09:46:40 PM 42.8469 -94.2986 84° East 489 563 45,000  Level Minneapolis Center
Thu 09:47:42 PM 42.8625 -94.1156 83° East 490 564 45,000  Level Minneapolis Center
Thu 09:48:44 PM 42.8789 -93.9325 83° East 492 566 45,000  Level Minneapolis Center
Thu 09:49:45 PM 42.8939 -93.7511 83° East 487 560 45,000  Level Minneapolis Center
Thu 09:50:47 PM 42.9133 -93.5322 83° East 490 564 45,000  Level Minneapolis Center
Thu 09:51:49 PM 42.9286 -93.3489 83° East 490 564 45,000  Level Minneapolis Center
Thu 09:52:50 PM 42.9425 -93.1664 84° East 488 562 45,000  Level Minneapolis Center
Thu 09:54:04 PM 42.9572 -92.9844 84° East 486 559 45,000  Level Minneapolis Center
Thu 09:55:06 PM 42.9750 -92.7658 84° East 487 560 45,000  Level Minneapolis Center
Thu 09:56:08 PM 42.9878 -92.5803 85° East 493 567 45,000  Level Minneapolis Center
Thu 09:57:09 PM 43.0053 -92.3569 84° East 498 573 45,000  Level Minneapolis Center
Thu 09:58:11 PM 43.0183 -92.1697 84° East 498 573 45,000  Level Minneapolis Center
Thu 09:59:13 PM 43.0317 -91.9817 84° East 499 574 45,000  Level Minneapolis Center
Thu 10:00:15 PM 43.0461 -91.7917 84° East 501 577 45,000  Level Minneapolis Center
Thu 10:01:16 PM 43.0589 -91.6019 85° East 500 575 45,000  Level Minneapolis Center
Thu 10:02:18 PM 43.0708 -91.4136 85° East 495 570 45,000  Level Minneapolis Center
Thu 10:03:20 PM 43.0808 -91.2297 86° East 489 563 45,000  Level Minneapolis Center
Thu 10:04:21 PM 43.0942 -91.0081 85° East 488 562 45,000  Level Minneapolis Center
Thu 10:05:23 PM 43.1047 -90.8228 85° East 490 564 45,000  Level Minneapolis Center
Thu 10:06:24 PM 43.1156 -90.6375 85° East 491 565 45,000  Level Minneapolis Center
Thu 10:07:26 PM 43.1261 -90.4522 85° East 493 567 45,000  Level Minneapolis Center
Thu 10:08:40 PM 43.1350 -90.2697 86° East 488 562 45,000  Level Minneapolis Center
Thu 10:09:42 PM 43.1483 -90.0278 86° East 489 563 45,000  Level Minneapolis Center
Thu 10:10:43 PM 43.1581 -89.8383 86° East 497 572 45,000  Level Minneapolis Center
Thu 10:11:45 PM 43.1667 -89.6497 86° East 497 572 45,000  Level Minneapolis Center
Thu 10:12:46 PM 43.1758 -89.4628 86° East 493 567 45,000  Level Minneapolis Center
Thu 10:13:48 PM 43.1856 -89.2453 86° East 490 564 45,000  Level Minneapolis Center
Thu 10:15:01 PM 43.1944 -89.0583 86° East 491 565 45,000  Level Minneapolis Center
Thu 10:16:03 PM 43.2031 -88.8422 87° East 489 563 45,000  Level Minneapolis Center
Thu 10:17:05 PM 43.2097 -88.6522 87° East 499 574 45,000  Level Minneapolis Center
Thu 10:18:06 PM 43.2178 -88.4331 87° East 500 575 45,000  Level Minneapolis Center
Thu 10:19:09 PM 43.2247 -88.2433 87° East 504 580 45,000  Level Chicago Center
Thu 10:20:10 PM 43.2319 -88.0528 87° East 503 579 45,000  Level Chicago Center
Thu 10:21:11 PM 43.2383 -87.8600 87° East 507 583 45,000  Level Chicago Center
Thu 10:22:13 PM 43.2444 -87.6658 87° East 510 587 45,000  Level Chicago Center
Thu 10:23:14 PM 43.2503 -87.4733 88° East 507 583 45,000  Level Chicago Center
Thu 10:24:16 PM 43.2575 -87.2811 87° East 500 575 45,000  Level Chicago Center
Thu 10:25:17 PM 43.2625 -87.0903 88° East 502 578 45,000  Level Chicago Center
Thu 10:26:18 PM 43.2664 -86.9006 88° East 499 574 45,000  Level Chicago Center
Thu 10:27:20 PM 43.2728 -86.6694 88° East 505 581 45,000  Level Chicago Center
Thu 10:28:21 PM 43.2769 -86.4758 88° East 507 583 45,000  Level Chicago Center
Thu 10:29:23 PM 43.2811 -86.2836 88° East 502 578 45,000  Level Chicago Center
Thu 10:30:24 PM 43.2850 -86.0894 88° East 503 579 45,000  Level Chicago Center
Thu 10:31:25 PM 43.2875 -85.8931 89° East 506 582 45,000  Level Chicago Center
Thu 10:32:27 PM 43.2906 -85.6989 89° East 504 580 45,000  Level Chicago Center
Thu 10:33:28 PM 43.2925 -85.5064 89° East 503 579 45,000  Level Chicago Center
Thu 10:34:29 PM 43.2947 -85.3142 89° East 502 578 45,000  Level Chicago Center
Thu 10:35:31 PM 43.2958 -85.1214 89° East 504 580 45,000  Level Chicago Center
Thu 10:36:32 PM 43.2975 -84.9317 89° East 500 575 45,000  Level Chicago Center
Thu 10:37:34 PM 43.2986 -84.7411 89° East 499 574 45,000  Level Chicago Center
Thu 10:38:35 PM 43.2997 -84.5542 89° East 496 571 45,000  Level Chicago Center
Thu 10:39:36 PM 43.3008 -84.3642 89° East 499 574 45,000  Level Chicago Center
Thu 10:40:37 PM 43.3011 -84.1303 90° East 502 578 45,000  Level Chicago Center
Thu 10:41:39 PM 43.3011 -83.9422 90° East 497 572 45,000  Level Chicago Center
Thu 10:42:22 PM 43.2833 -83.8000 100° East 490 564 45,000  Level Toronto Center
Thu 10:43:00 PM 43.2978 -83.6897 80° East 495 570 45,000  Level Cleveland Center
Thu 10:44:00 PM 43.2967 -83.5014 90° East 500 575 45,000  Level Cleveland Center
Thu 10:45:00 PM 43.2950 -83.3072 91° East 500 575 45,000  Level Cleveland Center
Thu 10:46:00 PM 43.2953 -83.1133 90° East 500 575 45,000  Level Cleveland Center
Thu 10:47:00 PM 43.2950 -82.9222 90° East 500 575 45,000  Level Cleveland Center
Thu 10:48:00 PM 43.2906 -82.7281 92° East 500 575 45,000  Level Cleveland Center
Thu 10:48:59 PM 43.2897 -82.5339 90° East 500 575 45,000  Level Cleveland Center
Thu 10:50:00 PM 43.2867 -82.3400 91° East 500 575 45,000  Level Cleveland Center
Thu 10:51:00 PM 43.2831 -82.1517 91° East 500 575 45,000  Level Cleveland Center
Thu 10:52:22 PM 43.2667 -81.8833 95° East 500 575 45,000  Level Toronto Center
Thu 10:53:22 PM 43.2667 -81.7000 90° East 500 575 45,000  Level Toronto Center
Thu 10:54:22 PM 43.2500 -81.4833 96° East 510 587 45,000  Level Toronto Center
Thu 10:55:22 PM 43.2500 -81.3000 90° East 510 587 45,000  Level Toronto Center
Thu 10:56:22 PM 43.2500 -81.1000 90° East 510 587 45,000  Level Toronto Center
Thu 10:57:22 PM 43.2333 -80.9167 97° East 510 587 45,000  Level Toronto Center
Thu 10:58:22 PM 43.2500 -80.7333 83° East 500 575 45,000  Level Toronto Center
Thu 10:59:22 PM 43.2333 -80.5333 96° East 500 575 45,000  Level Toronto Center
Thu 11:00:22 PM 43.2333 -80.3500 90° East 510 587 45,000 -250 Level Toronto Center
Thu 11:01:22 PM 43.2167 -80.1333 96° East 500 575 44,500 -750 Descending Toronto Center
Thu 11:02:22 PM 43.2167 -79.9500 90° East 500 575 43,500 -1,000 Descending Toronto Center
Thu 11:03:22 PM 43.2000 -79.7667 97° East 500 575 42,500 -1,000 Descending Toronto Center
Thu 11:04:22 PM 43.2000 -79.5667 90° East 500 575 41,500 -1,000 Descending Toronto Center
Thu 11:05:22 PM 43.2000 -79.3833 90° East 510 587 40,500 -1,050 Descending Toronto Center
Thu 11:06:22 PM 43.1833 -79.1833 96° East 500 575 39,400 -1,150 Descending Toronto Center
Thu 11:07:22 PM 43.1833 -79.0000 90° East 500 575 38,200 -1,200 Descending Toronto Center
Thu 11:08:22 PM 43.1667 -78.7833 96° East 520 598 37,000 -1,200 Descending Toronto Center
Thu 11:09:22 PM 43.1667 -78.5833 90° East 530 610 35,800 -1,200 Descending Toronto Center
Thu 11:10:22 PM 43.1333 -78.4000 104° East 540 621 34,600 -1,200 Descending Toronto Center
Thu 11:11:22 PM 43.1333 -78.1667 90° East 540 621 33,400 -1,200 Descending Toronto Center
Thu 11:12:22 PM 43.1167 -77.9833 97° East 540 621 32,200 -1,250 Descending Toronto Center
Thu 11:13:22 PM 43.0667 -77.7833 109° East 520 598 30,900 -1,250 Descending Toronto Center
Thu 11:14:22 PM 43.0167 -77.6333 114° Southeast 520 598 29,700 -1,250 Descending Toronto Center
Thu 11:15:22 PM 42.9500 -77.4500 116° Southeast 510 587 28,400 -1,200 Descending Toronto Center
Thu 11:16:22 PM 42.8667 -77.2667 122° Southeast 510 587 27,300 -600 Descending Toronto Center
Thu 11:17:42 PM 42.8139 -77.0883 112° Southeast 513 590 27,000 -129 Descending Boston Center
Thu 11:18:42 PM 42.7422 -76.9019 118° Southeast 513 590 27,000  Level Boston Center
Thu 11:19:42 PM 42.6778 -76.7306 117° Southeast 508 585 27,000  Level Boston Center
Thu 11:20:42 PM 42.6153 -76.5625 117° Southeast 508 585 27,000  Level Boston Center
Thu 11:21:42 PM 42.5525 -76.3978 117° Southeast 502 578 27,000  Level Boston Center
Thu 11:22:42 PM 42.4850 -76.2328 119° Southeast 502 578 27,000  Level Boston Center
Thu 11:23:42 PM 42.4131 -76.0794 122° Southeast 495 570 27,000 -700 Level Boston Center
Thu 11:24:42 PM 42.3408 -75.9178 121° Southeast 495 570 25,600 -1,350 Descending Boston Center
Thu 11:25:42 PM 42.2783 -75.7767 121° Southeast 489 563 24,300 700 Descending Boston Center
Thu 11:26:42 PM 42.1992 -75.6325 127° Southeast 484 557 27,000 -1,550 Climbing Boston Center
Thu 11:27:42 PM 42.1408 -75.4781 117° Southeast 479 551 21,200 -3,650 Descending Boston Center
Thu 11:28:42 PM 42.0758 -75.3381 122° Southeast 466 536 19,700 -1,500 Descending Boston Center
Thu 11:29:42 PM 42.0208 -75.1956 117° Southeast 442 509 18,200 -1,350 Descending Boston Center
Thu 11:30:42 PM 41.9600 -75.0422 118° Southeast 421 484 17,000 -600 Descending Boston Center
Thu 11:31:42 PM 41.9128 -74.9147 116° Southeast 414 476 17,000 -250 Level Boston Center
Thu 11:32:42 PM 41.8469 -74.7700 121° Southeast 419 482 16,500 -5,000 Descending Boston Center
Thu 11:33:42 PM 41.7872 -74.6342 120° Southeast 419 482 7,000 -4,750 Descending Boston Center
Thu 11:34:42 PM 41.6525 -74.7017 201° Southwest 419 482 7,000 2,350 Level Boston Center
Thu 11:35:42 PM 41.5844 -74.6714 162° South 393 452 11,700 1,500 Climbing Boston Center
Thu 11:36:42 PM 41.4975 -74.6297 160° South 320 368 10,000 -1,746 Descending Boston Center
Thu 11:37:56 PM 41.4000 -74.6000 167° South 282 325 7,800 -1,746 Descending New York TRACON
Thu 11:38:56 PM 41.3333 -74.6167 191° South 271 312 6,100 -900 Descending New York TRACON
Thu 11:39:56 PM 41.2500 -74.6000 171° South 282 325 6,000 -700 Descending New York TRACON
Thu 11:40:56 PM 41.1833 -74.5500 151° Southeast 280 322 4,700 -1,400 Descending New York TRACON
Thu 11:41:56 PM 41.1333 -74.4833 135° Southeast 273 314 3,200 -810 Descending New York TRACON
Thu 11:43:02 PM 41.0667 -74.4333 151° Southeast 270 311 3,000 -100 Descending New York TRACON
Thu 11:43:56 PM 41.0000 -74.3667 143° Southeast 272 313 3,000  Level New York TRACON
Thu 11:45:02 PM 40.9333 -74.3167 150° Southeast 253 291 3,000 -400 Level New York TRACON
Thu 11:45:56 PM 40.8833 -74.2667 143° Southeast 243 280 2,200 -789 Descending New York TRACON
Thu 11:46:56 PM 40.8333 -74.2167 143° Southeast 197 227 1,500 -400 Descending New York TRACON
Thu 11:47:56 PM 40.8167 -74.1833 123° Southeast 164 189 1,400 -100 Descending New York TRACON

Login

Don't have an account? Register now (free) for customized features, flight alerts, and more!